sensor_id;sensor_type;location;lat;lon;timestamp;temperature;humidity
2929;DHT22;1474;51.460;7.150;2023-08-07T00:01:24;21.50;65.10
2929;DHT22;1474;51.460;7.150;2023-08-07T00:03:52;21.40;65.10
2929;DHT22;1474;51.460;7.150;2023-08-07T00:06:22;21.50;65.10
2929;DHT22;1474;51.460;7.150;2023-08-07T00:08:48;21.50;65.00
2929;DHT22;1474;51.460;7.150;2023-08-07T00:11:15;21.40;65.10
2929;DHT22;1474;51.460;7.150;2023-08-07T00:13:41;21.40;65.10
2929;DHT22;1474;51.460;7.150;2023-08-07T00:16:07;21.50;65.10
2929;DHT22;1474;51.460;7.150;2023-08-07T00:18:36;21.40;65.10
2929;DHT22;1474;51.460;7.150;2023-08-07T00:21:02;21.50;65.10
2929;DHT22;1474;51.460;7.150;2023-08-07T00:23:28;21.50;65.10
2929;DHT22;1474;51.460;7.150;2023-08-07T00:25:54;21.50;65.10
2929;DHT22;1474;51.460;7.150;2023-08-07T00:28:23;21.50;65.00
2929;DHT22;1474;51.460;7.150;2023-08-07T00:30:49;21.50;65.10
2929;DHT22;1474;51.460;7.150;2023-08-07T00:33:19;21.50;65.00
2929;DHT22;1474;51.460;7.150;2023-08-07T00:35:46;21.40;65.10
2929;DHT22;1474;51.460;7.150;2023-08-07T00:38:14;21.40;65.10
2929;DHT22;1474;51.460;7.150;2023-08-07T00:40:41;21.40;65.40
2929;DHT22;1474;51.460;7.150;2023-08-07T00:43:07;21.40;65.10
2929;DHT22;1474;51.460;7.150;2023-08-07T00:45:38;21.40;65.10
2929;DHT22;1474;51.460;7.150;2023-08-07T00:48:15;21.50;65.10
2929;DHT22;1474;51.460;7.150;2023-08-07T00:50:43;21.50;65.10
2929;DHT22;1474;51.460;7.150;2023-08-07T00:53:11;21.40;65.10
2929;DHT22;1474;51.460;7.150;2023-08-07T00:55:37;21.40;65.10
2929;DHT22;1474;51.460;7.150;2023-08-07T00:58:04;21.40;65.10
2929;DHT22;1474;51.460;7.150;2023-08-07T01:00:29;21.40;65.10
2929;DHT22;1474;51.460;7.150;2023-08-07T01:02:58;21.40;65.10
2929;DHT22;1474;51.460;7.150;2023-08-07T01:05:25;21.40;65.00
2929;DHT22;1474;51.460;7.150;2023-08-07T01:07:53;21.40;65.70
2929;DHT22;1474;51.460;7.150;2023-08-07T01:19:29;21.40;65.10
2929;DHT22;1474;51.460;7.150;2023-08-07T01:22:12;21.40;65.10
2929;DHT22;1474;51.460;7.150;2023-08-07T01:24:42;21.40;65.10
2929;DHT22;1474;51.460;7.150;2023-08-07T01:30:17;21.40;65.10
2929;DHT22;1474;51.460;7.150;2023-08-07T01:32:54;21.40;65.00
2929;DHT22;1474;51.460;7.150;2023-08-07T01:35:29;21.40;65.10
2929;DHT22;1474;51.460;7.150;2023-08-07T01:38:01;21.40;65.10
2929;DHT22;1474;51.460;7.150;2023-08-07T01:40:28;21.40;65.10
2929;DHT22;1474;51.460;7.150;2023-08-07T01:42:55;21.40;65.00
2929;DHT22;1474;51.460;7.150;2023-08-07T01:45:28;21.40;65.00
2929;DHT22;1474;51.460;7.150;2023-08-07T01:47:54;21.40;65.00
2929;DHT22;1474;51.460;7.150;2023-08-07T01:50:22;21.40;65.10
2929;DHT22;1474;51.460;7.150;2023-08-07T01:52:49;21.40;65.00
2929;DHT22;1474;51.460;7.150;2023-08-07T01:55:16;21.40;65.10
2929;DHT22;1474;51.460;7.150;2023-08-07T01:57:43;21.40;65.00
2929;DHT22;1474;51.460;7.150;2023-08-07T02:00:09;21.40;65.00
2929;DHT22;1474;51.460;7.150;2023-08-07T02:02:36;21.40;65.00
2929;DHT22;1474;51.460;7.150;2023-08-07T02:05:04;21.40;65.00
2929;DHT22;1474;51.460;7.150;2023-08-07T02:07:30;21.40;65.00
2929;DHT22;1474;51.460;7.150;2023-08-07T02:09:57;21.40;65.00
2929;DHT22;1474;51.460;7.150;2023-08-07T02:12:23;21.40;65.00
2929;DHT22;1474;51.460;7.150;2023-08-07T02:14:50;21.40;65.00
2929;DHT22;1474;51.460;7.150;2023-08-07T02:17:16;21.40;65.00
2929;DHT22;1474;51.460;7.150;2023-08-07T02:19:42;21.40;65.00
2929;DHT22;1474;51.460;7.150;2023-08-07T02:22:08;21.40;65.00
2929;DHT22;1474;51.460;7.150;2023-08-07T02:24:36;21.40;65.60
2929;DHT22;1474;51.460;7.150;2023-08-07T02:27:02;21.40;65.00
2929;DHT22;1474;51.460;7.150;2023-08-07T02:29:28;21.40;65.60
2929;DHT22;1474;51.460;7.150;2023-08-07T02:31:55;21.40;65.00
2929;DHT22;1474;51.460;7.150;2023-08-07T02:34:23;21.40;65.00
2929;DHT22;1474;51.460;7.150;2023-08-07T02:36:49;21.40;65.00
2929;DHT22;1474;51.460;7.150;2023-08-07T02:39:15;21.40;64.90
2929;DHT22;1474;51.460;7.150;2023-08-07T02:41:41;21.40;65.00
2929;DHT22;1474;51.460;7.150;2023-08-07T02:44:07;21.40;65.00
2929;DHT22;1474;51.460;7.150;2023-08-07T02:46:33;21.40;64.90
2929;DHT22;1474;51.460;7.150;2023-08-07T02:49:01;21.40;64.90
2929;DHT22;1474;51.460;7.150;2023-08-07T02:51:27;21.40;65.00
2929;DHT22;1474;51.460;7.150;2023-08-07T02:53:52;21.40;65.00
2929;DHT22;1474;51.460;7.150;2023-08-07T02:56:18;21.40;65.00
2929;DHT22;1474;51.460;7.150;2023-08-07T02:58:44;21.30;64.90
2929;DHT22;1474;51.460;7.150;2023-08-07T03:01:10;21.40;65.00
2929;DHT22;1474;51.460;7.150;2023-08-07T03:03:37;21.40;65.00
2929;DHT22;1474;51.460;7.150;2023-08-07T03:06:03;21.40;65.00
2929;DHT22;1474;51.460;7.150;2023-08-07T03:08:29;21.40;65.00
2929;DHT22;1474;51.460;7.150;2023-08-07T03:10:56;21.40;64.90
2929;DHT22;1474;51.460;7.150;2023-08-07T03:13:27;21.40;65.00
2929;DHT22;1474;51.460;7.150;2023-08-07T03:16:04;21.40;64.90
2929;DHT22;1474;51.460;7.150;2023-08-07T03:18:30;21.40;64.90
2929;DHT22;1474;51.460;7.150;2023-08-07T03:20:57;21.40;64.90
2929;DHT22;1474;51.460;7.150;2023-08-07T03:23:24;21.40;64.90
2929;DHT22;1474;51.460;7.150;2023-08-07T03:26:01;21.40;64.90
2929;DHT22;1474;51.460;7.150;2023-08-07T03:28:30;21.40;64.90
2929;DHT22;1474;51.460;7.150;2023-08-07T03:30:56;21.30;64.90
2929;DHT22;1474;51.460;7.150;2023-08-07T03:33:22;21.40;64.90
2929;DHT22;1474;51.460;7.150;2023-08-07T03:35:50;21.30;64.80
2929;DHT22;1474;51.460;7.150;2023-08-07T03:38:16;21.40;65.00
2929;DHT22;1474;51.460;7.150;2023-08-07T03:40:42;21.40;65.00
2929;DHT22;1474;51.460;7.150;2023-08-07T03:43:08;21.40;64.90
2929;DHT22;1474;51.460;7.150;2023-08-07T03:45:36;21.40;65.50
2929;DHT22;1474;51.460;7.150;2023-08-07T03:48:02;21.40;65.00
2929;DHT22;1474;51.460;7.150;2023-08-07T03:50:28;21.40;64.90
2929;DHT22;1474;51.460;7.150;2023-08-07T03:52:56;21.40;65.00
2929;DHT22;1474;51.460;7.150;2023-08-07T03:55:21;21.40;65.00
2929;DHT22;1474;51.460;7.150;2023-08-07T03:57:47;21.40;64.90
2929;DHT22;1474;51.460;7.150;2023-08-07T04:00:13;21.30;64.90
2929;DHT22;1474;51.460;7.150;2023-08-07T04:02:39;21.40;64.90
2929;DHT22;1474;51.460;7.150;2023-08-07T04:05:06;21.40;65.00
2929;DHT22;1474;51.460;7.150;2023-08-07T04:07:32;21.30;64.90
2929;DHT22;1474;51.460;7.150;2023-08-07T04:09:58;21.40;64.90
2929;DHT22;1474;51.460;7.150;2023-08-07T04:12:24;21.30;64.90
2929;DHT22;1474;51.460;7.150;2023-08-07T04:14:49;21.30;64.90
2929;DHT22;1474;51.460;7.150;2023-08-07T04:17:16;21.30;64.90
2929;DHT22;1474;51.460;7.150;2023-08-07T04:19:41;21.30;64.90
2929;DHT22;1474;51.460;7.150;2023-08-07T04:22:07;21.30;64.90
2929;DHT22;1474;51.460;7.150;2023-08-07T04:24:33;21.30;64.90
2929;DHT22;1474;51.460;7.150;2023-08-07T04:26:59;21.30;64.80
2929;DHT22;1474;51.460;7.150;2023-08-07T04:29:25;21.30;64.80
2929;DHT22;1474;51.460;7.150;2023-08-07T04:31:50;21.30;64.80
2929;DHT22;1474;51.460;7.150;2023-08-07T04:34:16;21.30;64.80
2929;DHT22;1474;51.460;7.150;2023-08-07T04:36:42;21.30;64.90
2929;DHT22;1474;51.460;7.150;2023-08-07T04:39:08;21.30;64.80
2929;DHT22;1474;51.460;7.150;2023-08-07T04:41:34;21.30;64.90
2929;DHT22;1474;51.460;7.150;2023-08-07T04:43:59;21.30;64.90
2929;DHT22;1474;51.460;7.150;2023-08-07T04:46:26;21.30;64.90
2929;DHT22;1474;51.460;7.150;2023-08-07T04:48:52;21.30;64.90
2929;DHT22;1474;51.460;7.150;2023-08-07T04:51:19;21.30;64.90
2929;DHT22;1474;51.460;7.150;2023-08-07T04:53:45;21.30;64.80
2929;DHT22;1474;51.460;7.150;2023-08-07T04:56:11;21.30;64.80
2929;DHT22;1474;51.460;7.150;2023-08-07T04:58:37;21.30;65.40
2929;DHT22;1474;51.460;7.150;2023-08-07T05:01:05;21.30;64.80
2929;DHT22;1474;51.460;7.150;2023-08-07T05:03:32;21.30;64.80
2929;DHT22;1474;51.460;7.150;2023-08-07T05:05:58;21.30;64.80
2929;DHT22;1474;51.460;7.150;2023-08-07T05:08:28;21.30;64.90
2929;DHT22;1474;51.460;7.150;2023-08-07T05:10:53;21.30;64.90
2929;DHT22;1474;51.460;7.150;2023-08-07T05:13:19;21.30;64.90
2929;DHT22;1474;51.460;7.150;2023-08-07T05:15:47;21.30;64.90
2929;DHT22;1474;51.460;7.150;2023-08-07T05:18:14;21.20;64.80
2929;DHT22;1474;51.460;7.150;2023-08-07T05:20:40;21.30;64.90
2929;DHT22;1474;51.460;7.150;2023-08-07T05:23:06;21.30;64.90
2929;DHT22;1474;51.460;7.150;2023-08-07T05:25:31;21.30;64.80
2929;DHT22;1474;51.460;7.150;2023-08-07T05:28:00;21.30;64.90
2929;DHT22;1474;51.460;7.150;2023-08-07T05:30:26;21.30;64.80
2929;DHT22;1474;51.460;7.150;2023-08-07T05:32:52;21.30;64.80
2929;DHT22;1474;51.460;7.150;2023-08-07T05:35:18;21.30;64.80
2929;DHT22;1474;51.460;7.150;2023-08-07T05:37:43;21.30;64.80
2929;DHT22;1474;51.460;7.150;2023-08-07T05:40:09;21.30;64.80
2929;DHT22;1474;51.460;7.150;2023-08-07T05:42:37;21.30;64.80
2929;DHT22;1474;51.460;7.150;2023-08-07T05:45:03;21.30;64.80
2929;DHT22;1474;51.460;7.150;2023-08-07T05:47:29;21.40;64.70
2929;DHT22;1474;51.460;7.150;2023-08-07T05:49:55;21.40;64.70
2929;DHT22;1474;51.460;7.150;2023-08-07T05:52:21;21.30;64.60
2929;DHT22;1474;51.460;7.150;2023-08-07T05:54:47;21.30;64.60
2929;DHT22;1474;51.460;7.150;2023-08-07T05:57:13;21.40;64.70
2929;DHT22;1474;51.460;7.150;2023-08-07T05:59:39;21.30;64.60
2929;DHT22;1474;51.460;7.150;2023-08-07T06:02:07;21.30;64.60
2929;DHT22;1474;51.460;7.150;2023-08-07T06:04:36;21.30;64.60
2929;DHT22;1474;51.460;7.150;2023-08-07T06:07:01;21.30;64.70
2929;DHT22;1474;51.460;7.150;2023-08-07T06:09:27;21.30;64.70
2929;DHT22;1474;51.460;7.150;2023-08-07T06:11:53;21.20;64.70
2929;DHT22;1474;51.460;7.150;2023-08-07T06:14:19;21.30;64.80
2929;DHT22;1474;51.460;7.150;2023-08-07T06:16:45;21.30;64.80
2929;DHT22;1474;51.460;7.150;2023-08-07T06:19:10;21.30;64.80
2929;DHT22;1474;51.460;7.150;2023-08-07T06:21:36;21.30;64.80
2929;DHT22;1474;51.460;7.150;2023-08-07T06:24:02;21.30;64.80
2929;DHT22;1474;51.460;7.150;2023-08-07T06:26:28;21.20;64.80
2929;DHT22;1474;51.460;7.150;2023-08-07T06:28:54;21.20;64.80
2929;DHT22;1474;51.460;7.150;2023-08-07T06:31:20;21.20;64.80
2929;DHT22;1474;51.460;7.150;2023-08-07T06:33:45;21.30;64.80
2929;DHT22;1474;51.460;7.150;2023-08-07T06:36:11;21.20;64.70
2929;DHT22;1474;51.460;7.150;2023-08-07T06:38:37;21.20;64.80
2929;DHT22;1474;51.460;7.150;2023-08-07T06:41:03;21.30;64.80
2929;DHT22;1474;51.460;7.150;2023-08-07T06:43:29;21.30;64.80
2929;DHT22;1474;51.460;7.150;2023-08-07T06:45:56;21.30;64.80
2929;DHT22;1474;51.460;7.150;2023-08-07T06:48:22;21.30;64.80
2929;DHT22;1474;51.460;7.150;2023-08-07T06:50:49;21.30;64.60
2929;DHT22;1474;51.460;7.150;2023-08-07T06:53:15;21.30;64.70
2929;DHT22;1474;51.460;7.150;2023-08-07T06:55:42;21.30;64.60
2929;DHT22;1474;51.460;7.150;2023-08-07T06:58:08;21.30;64.60
2929;DHT22;1474;51.460;7.150;2023-08-07T07:00:35;21.30;64.60
2929;DHT22;1474;51.460;7.150;2023-08-07T07:03:02;21.30;64.60
2929;DHT22;1474;51.460;7.150;2023-08-07T07:05:29;21.30;64.50
2929;DHT22;1474;51.460;7.150;2023-08-07T07:07:56;21.30;64.60
2929;DHT22;1474;51.460;7.150;2023-08-07T07:10:22;21.00;65.70
2929;DHT22;1474;51.460;7.150;2023-08-07T07:12:48;20.90;65.30
2929;DHT22;1474;51.460;7.150;2023-08-07T07:15:14;20.80;65.80
2929;DHT22;1474;51.460;7.150;2023-08-07T07:17:40;20.70;66.20
2929;DHT22;1474;51.460;7.150;2023-08-07T07:20:06;20.70;66.00
2929;DHT22;1474;51.460;7.150;2023-08-07T07:22:35;20.70;66.20
2929;DHT22;1474;51.460;7.150;2023-08-07T07:25:01;20.60;66.10
2929;DHT22;1474;51.460;7.150;2023-08-07T07:27:27;20.50;66.40
2929;DHT22;1474;51.460;7.150;2023-08-07T07:29:52;20.60;66.60
2929;DHT22;1474;51.460;7.150;2023-08-07T07:32:18;20.30;66.30
2929;DHT22;1474;51.460;7.150;2023-08-07T07:34:44;19.90;68.00
2929;DHT22;1474;51.460;7.150;2023-08-07T07:37:10;19.60;68.90
2929;DHT22;1474;51.460;7.150;2023-08-07T07:39:36;19.50;69.50
2929;DHT22;1474;51.460;7.150;2023-08-07T07:42:05;19.50;69.90
2929;DHT22;1474;51.460;7.150;2023-08-07T07:44:32;19.40;70.20
2929;DHT22;1474;51.460;7.150;2023-08-07T07:46:59;19.40;70.70
2929;DHT22;1474;51.460;7.150;2023-08-07T07:49:27;19.30;70.80
2929;DHT22;1474;51.460;7.150;2023-08-07T07:51:53;19.40;70.00
2929;DHT22;1474;51.460;7.150;2023-08-07T07:54:18;19.30;70.30
2929;DHT22;1474;51.460;7.150;2023-08-07T07:56:47;19.30;70.70
2929;DHT22;1474;51.460;7.150;2023-08-07T07:59:13;19.20;70.80
2929;DHT22;1474;51.460;7.150;2023-08-07T08:01:39;19.10;71.40
2929;DHT22;1474;51.460;7.150;2023-08-07T08:04:08;19.10;71.20
2929;DHT22;1474;51.460;7.150;2023-08-07T08:06:35;19.20;71.10
2929;DHT22;1474;51.460;7.150;2023-08-07T08:09:01;19.20;71.10
2929;DHT22;1474;51.460;7.150;2023-08-07T08:11:30;19.10;71.10
2929;DHT22;1474;51.460;7.150;2023-08-07T08:13:56;19.10;71.40
2929;DHT22;1474;51.460;7.150;2023-08-07T08:16:22;19.20;71.50
2929;DHT22;1474;51.460;7.150;2023-08-07T08:18:50;19.20;71.50
2929;DHT22;1474;51.460;7.150;2023-08-07T08:21:16;19.20;71.30
2929;DHT22;1474;51.460;7.150;2023-08-07T08:23:41;19.30;71.00
2929;DHT22;1474;51.460;7.150;2023-08-07T08:26:07;19.30;70.70
2929;DHT22;1474;51.460;7.150;2023-08-07T08:28:33;19.40;70.70
2929;DHT22;1474;51.460;7.150;2023-08-07T08:30:58;19.40;70.70
2929;DHT22;1474;51.460;7.150;2023-08-07T08:33:24;19.50;70.40
2929;DHT22;1474;51.460;7.150;2023-08-07T08:35:50;19.30;71.10
2929;DHT22;1474;51.460;7.150;2023-08-07T08:38:16;19.20;71.10
2929;DHT22;1474;51.460;7.150;2023-08-07T08:40:44;19.30;71.00
2929;DHT22;1474;51.460;7.150;2023-08-07T08:43:12;19.20;71.50
2929;DHT22;1474;51.460;7.150;2023-08-07T08:45:43;19.30;72.10
2929;DHT22;1474;51.460;7.150;2023-08-07T08:48:12;19.20;71.30
2929;DHT22;1474;51.460;7.150;2023-08-07T08:50:48;19.20;71.70
2929;DHT22;1474;51.460;7.150;2023-08-07T08:53:16;19.30;71.60
2929;DHT22;1474;51.460;7.150;2023-08-07T08:55:42;19.30;71.40
2929;DHT22;1474;51.460;7.150;2023-08-07T08:58:13;19.20;71.80
2929;DHT22;1474;51.460;7.150;2023-08-07T09:00:41;19.20;72.20
2929;DHT22;1474;51.460;7.150;2023-08-07T09:03:07;19.40;71.50
2929;DHT22;1474;51.460;7.150;2023-08-07T09:05:35;19.60;71.50
2929;DHT22;1474;51.460;7.150;2023-08-07T09:08:03;19.90;70.80
2929;DHT22;1474;51.460;7.150;2023-08-07T09:10:31;20.10;70.00
2929;DHT22;1474;51.460;7.150;2023-08-07T09:13:01;20.20;70.10
2929;DHT22;1474;51.460;7.150;2023-08-07T09:15:31;20.00;70.50
2929;DHT22;1474;51.460;7.150;2023-08-07T09:17:58;20.00;70.80
2929;DHT22;1474;51.460;7.150;2023-08-07T09:20:28;19.90;70.90
2929;DHT22;1474;51.460;7.150;2023-08-07T09:22:57;20.00;70.80
2929;DHT22;1474;51.460;7.150;2023-08-07T09:25:33;20.10;71.10
2929;DHT22;1474;51.460;7.150;2023-08-07T09:28:03;20.50;70.10
2929;DHT22;1474;51.460;7.150;2023-08-07T09:30:34;20.90;68.50
2929;DHT22;1474;51.460;7.150;2023-08-07T09:33:02;21.10;68.30
2929;DHT22;1474;51.460;7.150;2023-08-07T09:35:29;21.30;68.10
2929;DHT22;1474;51.460;7.150;2023-08-07T09:37:59;21.50;66.70
2929;DHT22;1474;51.460;7.150;2023-08-07T09:40:26;21.30;67.80
2929;DHT22;1474;51.460;7.150;2023-08-07T09:42:54;21.20;67.70
2929;DHT22;1474;51.460;7.150;2023-08-07T09:45:24;21.20;68.40
2929;DHT22;1474;51.460;7.150;2023-08-07T09:48:02;21.10;69.00
2929;DHT22;1474;51.460;7.150;2023-08-07T09:50:30;20.90;69.10
2929;DHT22;1474;51.460;7.150;2023-08-07T09:52:57;20.70;69.50
2929;DHT22;1474;51.460;7.150;2023-08-07T09:55:24;20.60;69.20
2929;DHT22;1474;51.460;7.150;2023-08-07T09:57:50;20.50;69.50
2929;DHT22;1474;51.460;7.150;2023-08-07T10:00:17;20.30;70.00
2929;DHT22;1474;51.460;7.150;2023-08-07T10:02:49;20.20;70.40
2929;DHT22;1474;51.460;7.150;2023-08-07T10:05:16;20.30;70.20
2929;DHT22;1474;51.460;7.150;2023-08-07T10:07:43;20.40;69.70
2929;DHT22;1474;51.460;7.150;2023-08-07T10:10:09;20.20;70.00
2929;DHT22;1474;51.460;7.150;2023-08-07T10:12:37;20.20;70.30
2929;DHT22;1474;51.460;7.150;2023-08-07T10:15:04;20.50;69.90
2929;DHT22;1474;51.460;7.150;2023-08-07T10:17:31;20.80;69.00
2929;DHT22;1474;51.460;7.150;2023-08-07T10:19:58;21.00;68.70
2929;DHT22;1474;51.460;7.150;2023-08-07T10:22:29;21.10;68.30
2929;DHT22;1474;51.460;7.150;2023-08-07T10:24:57;21.30;68.40
2929;DHT22;1474;51.460;7.150;2023-08-07T10:27:27;21.40;67.70
2929;DHT22;1474;51.460;7.150;2023-08-07T10:29:56;21.30;67.50
2929;DHT22;1474;51.460;7.150;2023-08-07T10:32:25;21.30;67.60
2929;DHT22;1474;51.460;7.150;2023-08-07T10:34:52;21.40;67.60
2929;DHT22;1474;51.460;7.150;2023-08-07T10:37:41;21.50;67.00
2929;DHT22;1474;51.460;7.150;2023-08-07T10:40:08;21.50;66.80
2929;DHT22;1474;51.460;7.150;2023-08-07T10:45:21;21.60;66.70
2929;DHT22;1474;51.460;7.150;2023-08-07T10:48:08;21.70;66.40
2929;DHT22;1474;51.460;7.150;2023-08-07T10:50:51;21.80;66.40
2929;DHT22;1474;51.460;7.150;2023-08-07T10:53:45;21.80;66.30
2929;DHT22;1474;51.460;7.150;2023-08-07T10:59:07;21.70;66.10
2929;DHT22;1474;51.460;7.150;2023-08-07T11:01:41;21.70;66.10
2929;DHT22;1474;51.460;7.150;2023-08-07T11:04:11;21.70;66.20
2929;DHT22;1474;51.460;7.150;2023-08-07T11:06:40;21.70;66.00
2929;DHT22;1474;51.460;7.150;2023-08-07T11:09:12;21.70;66.00
2929;DHT22;1474;51.460;7.150;2023-08-07T11:11:43;21.80;65.90
2929;DHT22;1474;51.460;7.150;2023-08-07T11:14:13;21.90;65.70
2929;DHT22;1474;51.460;7.150;2023-08-07T11:16:44;21.90;65.80
2929;DHT22;1474;51.460;7.150;2023-08-07T11:19:15;21.90;65.40
2929;DHT22;1474;51.460;7.150;2023-08-07T11:21:43;21.90;65.60
2929;DHT22;1474;51.460;7.150;2023-08-07T11:24:12;21.90;65.40
2929;DHT22;1474;51.460;7.150;2023-08-07T11:26:39;21.90;65.70
2929;DHT22;1474;51.460;7.150;2023-08-07T11:29:04;22.00;65.20
2929;DHT22;1474;51.460;7.150;2023-08-07T11:31:30;22.00;65.10
2929;DHT22;1474;51.460;7.150;2023-08-07T11:34:00;22.10;65.20
2929;DHT22;1474;51.460;7.150;2023-08-07T11:36:28;22.10;64.70
2929;DHT22;1474;51.460;7.150;2023-08-07T11:38:54;22.10;65.00
2929;DHT22;1474;51.460;7.150;2023-08-07T11:41:20;22.10;64.80
2929;DHT22;1474;51.460;7.150;2023-08-07T11:43:46;22.20;64.60
2929;DHT22;1474;51.460;7.150;2023-08-07T11:46:16;22.10;64.00
2929;DHT22;1474;51.460;7.150;2023-08-07T11:48:43;22.10;64.30
2929;DHT22;1474;51.460;7.150;2023-08-07T11:51:09;22.10;64.00
2929;DHT22;1474;51.460;7.150;2023-08-07T11:53:37;22.20;64.10
2929;DHT22;1474;51.460;7.150;2023-08-07T11:56:08;22.30;64.10
2929;DHT22;1474;51.460;7.150;2023-08-07T11:58:53;22.30;63.80
2929;DHT22;1474;51.460;7.150;2023-08-07T12:01:21;22.30;63.10
2929;DHT22;1474;51.460;7.150;2023-08-07T12:03:56;22.30;63.70
2929;DHT22;1474;51.460;7.150;2023-08-07T12:06:34;22.30;63.50
2929;DHT22;1474;51.460;7.150;2023-08-07T12:09:11;22.40;63.50
2929;DHT22;1474;51.460;7.150;2023-08-07T12:11:38;22.40;63.20
2929;DHT22;1474;51.460;7.150;2023-08-07T12:14:04;22.40;63.50
2929;DHT22;1474;51.460;7.150;2023-08-07T12:16:34;22.50;63.30
2929;DHT22;1474;51.460;7.150;2023-08-07T12:19:01;22.50;63.70
2929;DHT22;1474;51.460;7.150;2023-08-07T12:21:30;22.50;63.20
2929;DHT22;1474;51.460;7.150;2023-08-07T12:23:59;22.40;63.30
2929;DHT22;1474;51.460;7.150;2023-08-07T12:26:27;22.40;63.30
2929;DHT22;1474;51.460;7.150;2023-08-07T12:28:53;22.40;63.20
2929;DHT22;1474;51.460;7.150;2023-08-07T12:31:19;22.40;63.10
2929;DHT22;1474;51.460;7.150;2023-08-07T12:33:45;22.50;63.00
2929;DHT22;1474;51.460;7.150;2023-08-07T12:36:14;22.50;63.10
2929;DHT22;1474;51.460;7.150;2023-08-07T12:38:40;22.50;63.00
2929;DHT22;1474;51.460;7.150;2023-08-07T12:41:06;22.40;62.80
2929;DHT22;1474;51.460;7.150;2023-08-07T12:43:32;22.40;62.90
2929;DHT22;1474;51.460;7.150;2023-08-07T12:45:59;22.30;62.90
2929;DHT22;1474;51.460;7.150;2023-08-07T12:48:25;22.30;61.90
2929;DHT22;1474;51.460;7.150;2023-08-07T12:50:52;22.30;62.00
2929;DHT22;1474;51.460;7.150;2023-08-07T12:53:18;22.20;60.10
2929;DHT22;1474;51.460;7.150;2023-08-07T12:55:44;22.20;62.00
2929;DHT22;1474;51.460;7.150;2023-08-07T12:58:10;22.30;62.20
2929;DHT22;1474;51.460;7.150;2023-08-07T13:00:39;22.30;62.30
2929;DHT22;1474;51.460;7.150;2023-08-07T13:03:05;22.20;62.40
2929;DHT22;1474;51.460;7.150;2023-08-07T13:05:31;22.20;60.80
2929;DHT22;1474;51.460;7.150;2023-08-07T13:07:56;22.30;62.10
2929;DHT22;1474;51.460;7.150;2023-08-07T13:10:24;22.30;62.20
2929;DHT22;1474;51.460;7.150;2023-08-07T13:12:53;22.20;61.40
2929;DHT22;1474;51.460;7.150;2023-08-07T13:15:19;22.20;61.60
2929;DHT22;1474;51.460;7.150;2023-08-07T13:17:47;22.20;61.20
2929;DHT22;1474;51.460;7.150;2023-08-07T13:20:13;22.30;61.60
2929;DHT22;1474;51.460;7.150;2023-08-07T13:22:40;22.30;61.70
2929;DHT22;1474;51.460;7.150;2023-08-07T13:25:09;22.30;62.10
2929;DHT22;1474;51.460;7.150;2023-08-07T13:27:35;22.30;62.10
2929;DHT22;1474;51.460;7.150;2023-08-07T13:30:02;22.30;61.90
2929;DHT22;1474;51.460;7.150;2023-08-07T13:32:29;22.30;61.90
2929;DHT22;1474;51.460;7.150;2023-08-07T13:34:55;22.30;62.00
2929;DHT22;1474;51.460;7.150;2023-08-07T13:37:21;22.30;62.00
2929;DHT22;1474;51.460;7.150;2023-08-07T13:39:47;22.40;61.90
2929;DHT22;1474;51.460;7.150;2023-08-07T13:42:17;22.40;61.70
2929;DHT22;1474;51.460;7.150;2023-08-07T13:44:43;22.30;62.00
2929;DHT22;1474;51.460;7.150;2023-08-07T13:47:10;22.30;61.80
2929;DHT22;1474;51.460;7.150;2023-08-07T13:49:36;22.30;61.20
2929;DHT22;1474;51.460;7.150;2023-08-07T13:52:03;22.40;61.70
2929;DHT22;1474;51.460;7.150;2023-08-07T13:54:29;22.30;61.70
2929;DHT22;1474;51.460;7.150;2023-08-07T13:56:55;22.40;61.80
2929;DHT22;1474;51.460;7.150;2023-08-07T13:59:20;22.30;61.80
2929;DHT22;1474;51.460;7.150;2023-08-07T14:01:46;22.40;61.70
2929;DHT22;1474;51.460;7.150;2023-08-07T14:04:12;22.40;61.70
2929;DHT22;1474;51.460;7.150;2023-08-07T14:06:39;22.30;60.70
2929;DHT22;1474;51.460;7.150;2023-08-07T14:09:08;22.30;61.30
2929;DHT22;1474;51.460;7.150;2023-08-07T14:11:35;22.30;61.50
2929;DHT22;1474;51.460;7.150;2023-08-07T14:14:01;22.30;61.40
2929;DHT22;1474;51.460;7.150;2023-08-07T14:16:26;22.30;60.30
2929;DHT22;1474;51.460;7.150;2023-08-07T14:18:52;22.30;61.10
2929;DHT22;1474;51.460;7.150;2023-08-07T14:21:18;22.30;59.90
2929;DHT22;1474;51.460;7.150;2023-08-07T14:23:46;22.20;59.70
2929;DHT22;1474;51.460;7.150;2023-08-07T14:26:12;22.20;60.60
2929;DHT22;1474;51.460;7.150;2023-08-07T14:28:38;22.20;61.40
2929;DHT22;1474;51.460;7.150;2023-08-07T14:31:08;22.20;60.40
2929;DHT22;1474;51.460;7.150;2023-08-07T14:33:34;22.20;60.50
2929;DHT22;1474;51.460;7.150;2023-08-07T14:36:01;22.20;59.30
2929;DHT22;1474;51.460;7.150;2023-08-07T14:38:27;22.10;59.70
2929;DHT22;1474;51.460;7.150;2023-08-07T14:40:54;22.00;60.50
2929;DHT22;1474;51.460;7.150;2023-08-07T14:43:20;22.10;59.80
2929;DHT22;1474;51.460;7.150;2023-08-07T14:45:46;22.00;60.50
2929;DHT22;1474;51.460;7.150;2023-08-07T14:48:13;22.00;60.60
2929;DHT22;1474;51.460;7.150;2023-08-07T14:50:40;22.00;59.90
2929;DHT22;1474;51.460;7.150;2023-08-07T14:53:05;22.00;60.00
2929;DHT22;1474;51.460;7.150;2023-08-07T14:55:31;22.00;60.30
2929;DHT22;1474;51.460;7.150;2023-08-07T14:57:57;22.00;59.40
2929;DHT22;1474;51.460;7.150;2023-08-07T15:00:23;22.00;59.50
2929;DHT22;1474;51.460;7.150;2023-08-07T15:02:48;22.00;59.80
2929;DHT22;1474;51.460;7.150;2023-08-07T15:05:14;22.00;59.70
2929;DHT22;1474;51.460;7.150;2023-08-07T15:07:40;22.00;60.10
2929;DHT22;1474;51.460;7.150;2023-08-07T15:10:08;21.90;59.60
2929;DHT22;1474;51.460;7.150;2023-08-07T15:12:33;21.90;59.30
2929;DHT22;1474;51.460;7.150;2023-08-07T15:14:59;21.80;58.30
2929;DHT22;1474;51.460;7.150;2023-08-07T15:17:25;21.80;59.70
2929;DHT22;1474;51.460;7.150;2023-08-07T15:19:53;21.80;59.30
2929;DHT22;1474;51.460;7.150;2023-08-07T15:22:19;21.70;59.20
2929;DHT22;1474;51.460;7.150;2023-08-07T15:24:45;21.70;59.00
2929;DHT22;1474;51.460;7.150;2023-08-07T15:27:11;21.60;58.10
2929;DHT22;1474;51.460;7.150;2023-08-07T15:29:44;21.60;58.90
2929;DHT22;1474;51.460;7.150;2023-08-07T15:32:11;21.60;57.90
2929;DHT22;1474;51.460;7.150;2023-08-07T15:34:39;21.60;58.90
2929;DHT22;1474;51.460;7.150;2023-08-07T15:37:05;21.60;58.00
2929;DHT22;1474;51.460;7.150;2023-08-07T15:39:31;21.60;58.40
2929;DHT22;1474;51.460;7.150;2023-08-07T15:41:57;21.50;58.30
2929;DHT22;1474;51.460;7.150;2023-08-07T15:44:22;21.40;58.20
2929;DHT22;1474;51.460;7.150;2023-08-07T15:46:51;21.30;58.90
2929;DHT22;1474;51.460;7.150;2023-08-07T15:49:16;21.30;58.00
2929;DHT22;1474;51.460;7.150;2023-08-07T15:51:45;21.30;59.10
2929;DHT22;1474;51.460;7.150;2023-08-07T15:54:10;21.30;57.80
2929;DHT22;1474;51.460;7.150;2023-08-07T15:56:36;21.20;59.90
2929;DHT22;1474;51.460;7.150;2023-08-07T15:59:02;21.10;58.70
2929;DHT22;1474;51.460;7.150;2023-08-07T16:01:28;21.10;60.50
2929;DHT22;1474;51.460;7.150;2023-08-07T16:03:54;21.10;57.90
2929;DHT22;1474;51.460;7.150;2023-08-07T16:06:22;21.00;59.60
2929;DHT22;1474;51.460;7.150;2023-08-07T16:08:48;21.00;59.10
2929;DHT22;1474;51.460;7.150;2023-08-07T16:11:14;21.00;58.20
2929;DHT22;1474;51.460;7.150;2023-08-07T16:13:40;21.00;59.80
2929;DHT22;1474;51.460;7.150;2023-08-07T16:16:05;21.10;59.30
2929;DHT22;1474;51.460;7.150;2023-08-07T16:18:31;21.10;59.80
2929;DHT22;1474;51.460;7.150;2023-08-07T16:20:57;21.10;57.80